sensor_id;sensor_type;location;lat;lon;timestamp;P1;durP1;ratioP1;P2;durP2;ratioP2
13343;SDS011;6741;48.964;9.406;2023-04-15T00:02:14;7.63;;;5.07;;
13343;SDS011;6741;48.964;9.406;2023-04-15T00:04:42;6.10;;;4.90;;
13343;SDS011;6741;48.964;9.406;2023-04-15T00:07:09;7.27;;;4.37;;
13343;SDS011;6741;48.964;9.406;2023-04-15T00:09:38;7.43;;;4.50;;
13343;SDS011;6741;48.964;9.406;2023-04-15T00:12:05;5.80;;;4.30;;
13343;SDS011;6741;48.964;9.406;2023-04-15T00:14:32;6.40;;;3.90;;
13343;SDS011;6741;48.964;9.406;2023-04-15T00:17:00;5.60;;;4.43;;
13343;SDS011;6741;48.964;9.406;2023-04-15T00:19:27;5.37;;;3.50;;
13343;SDS011;6741;48.964;9.406;2023-04-15T00:21:54;5.60;;;3.33;;
13343;SDS011;6741;48.964;9.406;2023-04-15T00:24:21;6.03;;;3.37;;
13343;SDS011;6741;48.964;9.406;2023-04-15T00:26:50;7.27;;;4.03;;
13343;SDS011;6741;48.964;9.406;2023-04-15T00:29:17;3.40;;;3.10;;
13343;SDS011;6741;48.964;9.406;2023-04-15T00:31:43;4.90;;;3.73;;
13343;SDS011;6741;48.964;9.406;2023-04-15T00:34:10;8.23;;;4.67;;
13343;SDS011;6741;48.964;9.406;2023-04-15T00:36:38;5.10;;;3.50;;
13343;SDS011;6741;48.964;9.406;2023-04-15T00:39:05;5.27;;;3.67;;
13343;SDS011;6741;48.964;9.406;2023-04-15T00:41:32;4.20;;;3.80;;
13343;SDS011;6741;48.964;9.406;2023-04-15T00:44:00;5.93;;;4.13;;
13343;SDS011;6741;48.964;9.406;2023-04-15T00:46:27;6.53;;;4.00;;
13343;SDS011;6741;48.964;9.406;2023-04-15T00:48:56;4.63;;;3.50;;
13343;SDS011;6741;48.964;9.406;2023-04-15T00:51:23;4.17;;;3.77;;
13343;SDS011;6741;48.964;9.406;2023-04-15T00:53:50;5.57;;;3.57;;
13343;SDS011;6741;48.964;9.406;2023-04-15T00:56:17;5.03;;;3.30;;
13343;SDS011;6741;48.964;9.406;2023-04-15T00:58:48;6.73;;;4.00;;
13343;SDS011;6741;48.964;9.406;2023-04-15T01:01:17;6.20;;;3.70;;
13343;SDS011;6741;48.964;9.406;2023-04-15T01:03:47;5.37;;;4.03;;
13343;SDS011;6741;48.964;9.406;2023-04-15T01:06:15;4.27;;;3.67;;
13343;SDS011;6741;48.964;9.406;2023-04-15T01:08:43;5.67;;;3.53;;
13343;SDS011;6741;48.964;9.406;2023-04-15T01:11:11;6.40;;;3.70;;
13343;SDS011;6741;48.964;9.406;2023-04-15T01:13:38;4.10;;;3.47;;
13343;SDS011;6741;48.964;9.406;2023-04-15T01:16:05;4.40;;;3.77;;
13343;SDS011;6741;48.964;9.406;2023-04-15T01:18:35;4.20;;;3.30;;
13343;SDS011;6741;48.964;9.406;2023-04-15T01:21:03;5.47;;;3.30;;
13343;SDS011;6741;48.964;9.406;2023-04-15T01:23:31;4.60;;;3.33;;
13343;SDS011;6741;48.964;9.406;2023-04-15T01:26:02;4.90;;;3.10;;
13343;SDS011;6741;48.964;9.406;2023-04-15T01:28:29;4.50;;;3.30;;
13343;SDS011;6741;48.964;9.406;2023-04-15T01:31:06;5.63;;;3.80;;
13343;SDS011;6741;48.964;9.406;2023-04-15T01:33:34;5.60;;;3.40;;
13343;SDS011;6741;48.964;9.406;2023-04-15T01:36:02;5.93;;;3.70;;
13343;SDS011;6741;48.964;9.406;2023-04-15T01:38:29;5.27;;;4.43;;
13343;SDS011;6741;48.964;9.406;2023-04-15T01:40:57;7.60;;;5.60;;
13343;SDS011;6741;48.964;9.406;2023-04-15T01:43:25;8.27;;;5.30;;
13343;SDS011;6741;48.964;9.406;2023-04-15T01:45:53;10.63;;;5.50;;
13343;SDS011;6741;48.964;9.406;2023-04-15T01:48:20;6.40;;;5.07;;
13343;SDS011;6741;48.964;9.406;2023-04-15T01:50:47;7.47;;;5.00;;
13343;SDS011;6741;48.964;9.406;2023-04-15T01:53:14;7.03;;;5.30;;
13343;SDS011;6741;48.964;9.406;2023-04-15T01:55:41;6.57;;;5.10;;
13343;SDS011;6741;48.964;9.406;2023-04-15T01:58:08;5.53;;;4.20;;
13343;SDS011;6741;48.964;9.406;2023-04-15T02:00:37;5.80;;;4.53;;
13343;SDS011;6741;48.964;9.406;2023-04-15T02:03:03;7.10;;;5.03;;
13343;SDS011;6741;48.964;9.406;2023-04-15T02:05:30;6.53;;;4.73;;
13343;SDS011;6741;48.964;9.406;2023-04-15T02:07:57;5.20;;;4.40;;
13343;SDS011;6741;48.964;9.406;2023-04-15T02:10:24;5.80;;;4.43;;
13343;SDS011;6741;48.964;9.406;2023-04-15T02:12:52;6.87;;;4.80;;
13343;SDS011;6741;48.964;9.406;2023-04-15T02:15:19;5.70;;;4.47;;
13343;SDS011;6741;48.964;9.406;2023-04-15T02:17:47;4.60;;;4.07;;
13343;SDS011;6741;48.964;9.406;2023-04-15T02:20:16;5.53;;;4.23;;
13343;SDS011;6741;48.964;9.406;2023-04-15T02:22:45;6.57;;;4.63;;
13343;SDS011;6741;48.964;9.406;2023-04-15T02:25:12;6.37;;;5.17;;
13343;SDS011;6741;48.964;9.406;2023-04-15T02:27:40;6.40;;;4.63;;
13343;SDS011;6741;48.964;9.406;2023-04-15T02:30:08;9.33;;;4.50;;
13343;SDS011;6741;48.964;9.406;2023-04-15T02:32:35;5.40;;;4.63;;
13343;SDS011;6741;48.964;9.406;2023-04-15T02:35:04;9.00;;;4.60;;
13343;SDS011;6741;48.964;9.406;2023-04-15T02:37:33;7.87;;;4.83;;
13343;SDS011;6741;48.964;9.406;2023-04-15T02:40:05;5.63;;;4.37;;
13343;SDS011;6741;48.964;9.406;2023-04-15T02:42:33;7.73;;;5.00;;
13343;SDS011;6741;48.964;9.406;2023-04-15T02:45:00;6.37;;;4.97;;
13343;SDS011;6741;48.964;9.406;2023-04-15T02:47:27;6.93;;;4.40;;
13343;SDS011;6741;48.964;9.406;2023-04-15T02:49:54;5.50;;;4.90;;
13343;SDS011;6741;48.964;9.406;2023-04-15T02:52:24;9.10;;;5.07;;
13343;SDS011;6741;48.964;9.406;2023-04-15T02:54:51;7.60;;;4.23;;
13343;SDS011;6741;48.964;9.406;2023-04-15T02:57:21;5.73;;;4.80;;
13343;SDS011;6741;48.964;9.406;2023-04-15T02:59:48;5.00;;;4.13;;
13343;SDS011;6741;48.964;9.406;2023-04-15T03:02:15;4.60;;;3.87;;
13343;SDS011;6741;48.964;9.406;2023-04-15T03:04:42;4.63;;;3.83;;
13343;SDS011;6741;48.964;9.406;2023-04-15T03:07:09;6.13;;;4.33;;
13343;SDS011;6741;48.964;9.406;2023-04-15T03:09:37;6.07;;;4.27;;
13343;SDS011;6741;48.964;9.406;2023-04-15T03:12:05;5.20;;;4.23;;
13343;SDS011;6741;48.964;9.406;2023-04-15T03:14:32;5.27;;;4.33;;
13343;SDS011;6741;48.964;9.406;2023-04-15T03:16:59;4.60;;;4.20;;
13343;SDS011;6741;48.964;9.406;2023-04-15T03:19:26;5.10;;;4.57;;
13343;SDS011;6741;48.964;9.406;2023-04-15T03:21:53;6.17;;;4.47;;
13343;SDS011;6741;48.964;9.406;2023-04-15T03:24:20;5.60;;;4.60;;
13343;SDS011;6741;48.964;9.406;2023-04-15T03:26:48;5.57;;;4.60;;
13343;SDS011;6741;48.964;9.406;2023-04-15T03:29:15;5.70;;;4.80;;
13343;SDS011;6741;48.964;9.406;2023-04-15T03:31:42;8.47;;;4.80;;
13343;SDS011;6741;48.964;9.406;2023-04-15T03:34:09;5.23;;;4.63;;
13343;SDS011;6741;48.964;9.406;2023-04-15T03:36:36;7.93;;;4.17;;
13343;SDS011;6741;48.964;9.406;2023-04-15T03:39:03;5.40;;;4.67;;
13343;SDS011;6741;48.964;9.406;2023-04-15T03:41:30;8.90;;;7.40;;
13343;SDS011;6741;48.964;9.406;2023-04-15T03:43:59;10.90;;;6.83;;
13343;SDS011;6741;48.964;9.406;2023-04-15T03:46:25;10.80;;;7.97;;
13343;SDS011;6741;48.964;9.406;2023-04-15T03:48:53;8.70;;;7.40;;
13343;SDS011;6741;48.964;9.406;2023-04-15T03:51:20;8.07;;;6.77;;
13343;SDS011;6741;48.964;9.406;2023-04-15T03:53:46;9.10;;;7.63;;
13343;SDS011;6741;48.964;9.406;2023-04-15T03:56:13;7.73;;;6.37;;
13343;SDS011;6741;48.964;9.406;2023-04-15T03:58:41;7.77;;;5.30;;
13343;SDS011;6741;48.964;9.406;2023-04-15T04:01:09;5.30;;;4.43;;
13343;SDS011;6741;48.964;9.406;2023-04-15T04:03:36;6.07;;;4.67;;
13343;SDS011;6741;48.964;9.406;2023-04-15T04:06:03;5.03;;;4.20;;
13343;SDS011;6741;48.964;9.406;2023-04-15T04:08:30;4.07;;;3.53;;
13343;SDS011;6741;48.964;9.406;2023-04-15T04:10:57;6.70;;;4.17;;
13343;SDS011;6741;48.964;9.406;2023-04-15T04:13:24;5.80;;;4.80;;
13343;SDS011;6741;48.964;9.406;2023-04-15T04:15:51;4.57;;;3.67;;
13343;SDS011;6741;48.964;9.406;2023-04-15T04:18:19;4.30;;;3.70;;
13343;SDS011;6741;48.964;9.406;2023-04-15T04:20:46;6.10;;;3.77;;
13343;SDS011;6741;48.964;9.406;2023-04-15T04:23:13;8.33;;;4.33;;
13343;SDS011;6741;48.964;9.406;2023-04-15T04:25:40;3.60;;;3.30;;
13343;SDS011;6741;48.964;9.406;2023-04-15T04:28:07;5.43;;;4.00;;
13343;SDS011;6741;48.964;9.406;2023-04-15T04:30:35;5.10;;;3.80;;
13343;SDS011;6741;48.964;9.406;2023-04-15T04:33:02;4.40;;;3.83;;
13343;SDS011;6741;48.964;9.406;2023-04-15T04:35:30;6.90;;;3.53;;
13343;SDS011;6741;48.964;9.406;2023-04-15T04:37:59;5.37;;;4.83;;
13343;SDS011;6741;48.964;9.406;2023-04-15T04:40:25;7.47;;;4.60;;
13343;SDS011;6741;48.964;9.406;2023-04-15T04:42:52;7.07;;;5.00;;
13343;SDS011;6741;48.964;9.406;2023-04-15T04:45:19;4.77;;;4.30;;
13343;SDS011;6741;48.964;9.406;2023-04-15T04:47:46;8.77;;;5.83;;
13343;SDS011;6741;48.964;9.406;2023-04-15T04:50:13;11.10;;;8.43;;
13343;SDS011;6741;48.964;9.406;2023-04-15T04:52:42;12.40;;;9.10;;
13343;SDS011;6741;48.964;9.406;2023-04-15T04:55:09;16.93;;;10.33;;
13343;SDS011;6741;48.964;9.406;2023-04-15T04:57:35;15.00;;;9.87;;
13343;SDS011;6741;48.964;9.406;2023-04-15T05:00:04;11.60;;;8.50;;
13343;SDS011;6741;48.964;9.406;2023-04-15T05:02:32;8.63;;;6.57;;
13343;SDS011;6741;48.964;9.406;2023-04-15T05:05:00;7.63;;;6.83;;
13343;SDS011;6741;48.964;9.406;2023-04-15T05:07:26;8.07;;;7.00;;
13343;SDS011;6741;48.964;9.406;2023-04-15T05:09:55;55.70;;;31.27;;
13343;SDS011;6741;48.964;9.406;2023-04-15T05:12:22;41.37;;;28.20;;
13343;SDS011;6741;48.964;9.406;2023-04-15T05:14:48;20.13;;;15.47;;
13343;SDS011;6741;48.964;9.406;2023-04-15T05:17:15;19.70;;;15.53;;
13343;SDS011;6741;48.964;9.406;2023-04-15T05:19:42;12.93;;;11.63;;
13343;SDS011;6741;48.964;9.406;2023-04-15T05:22:09;11.07;;;8.63;;
13343;SDS011;6741;48.964;9.406;2023-04-15T05:24:36;18.17;;;15.90;;
13343;SDS011;6741;48.964;9.406;2023-04-15T05:27:04;12.00;;;8.97;;
13343;SDS011;6741;48.964;9.406;2023-04-15T05:29:32;13.57;;;7.50;;
13343;SDS011;6741;48.964;9.406;2023-04-15T05:31:59;7.93;;;6.90;;
13343;SDS011;6741;48.964;9.406;2023-04-15T05:34:26;7.57;;;6.80;;
13343;SDS011;6741;48.964;9.406;2023-04-15T05:36:53;6.77;;;5.70;;
13343;SDS011;6741;48.964;9.406;2023-04-15T05:39:20;6.70;;;5.97;;
13343;SDS011;6741;48.964;9.406;2023-04-15T05:41:47;6.27;;;5.50;;
13343;SDS011;6741;48.964;9.406;2023-04-15T05:44:16;9.73;;;6.77;;
13343;SDS011;6741;48.964;9.406;2023-04-15T05:46:42;6.50;;;5.83;;
13343;SDS011;6741;48.964;9.406;2023-04-15T05:49:09;6.90;;;5.53;;
13343;SDS011;6741;48.964;9.406;2023-04-15T05:51:36;4.93;;;4.37;;
13343;SDS011;6741;48.964;9.406;2023-04-15T05:54:03;5.47;;;4.93;;
13343;SDS011;6741;48.964;9.406;2023-04-15T05:56:30;5.80;;;4.60;;
13343;SDS011;6741;48.964;9.406;2023-04-15T05:58:57;5.67;;;4.20;;
13343;SDS011;6741;48.964;9.406;2023-04-15T06:01:26;6.40;;;4.43;;
13343;SDS011;6741;48.964;9.406;2023-04-15T06:03:53;5.00;;;3.40;;
13343;SDS011;6741;48.964;9.406;2023-04-15T06:06:20;4.30;;;4.00;;
13343;SDS011;6741;48.964;9.406;2023-04-15T06:08:47;7.63;;;4.00;;
13343;SDS011;6741;48.964;9.406;2023-04-15T06:11:14;4.47;;;3.90;;
13343;SDS011;6741;48.964;9.406;2023-04-15T06:13:40;4.63;;;4.23;;
13343;SDS011;6741;48.964;9.406;2023-04-15T06:16:07;4.20;;;3.80;;
13343;SDS011;6741;48.964;9.406;2023-04-15T06:18:36;4.50;;;4.10;;
13343;SDS011;6741;48.964;9.406;2023-04-15T06:21:02;5.17;;;4.10;;
13343;SDS011;6741;48.964;9.406;2023-04-15T06:23:33;4.40;;;4.00;;
13343;SDS011;6741;48.964;9.406;2023-04-15T06:26:00;4.57;;;4.10;;
13343;SDS011;6741;48.964;9.406;2023-04-15T06:28:27;4.43;;;4.03;;
13343;SDS011;6741;48.964;9.406;2023-04-15T06:30:54;4.23;;;3.83;;
13343;SDS011;6741;48.964;9.406;2023-04-15T06:33:21;5.80;;;4.00;;
13343;SDS011;6741;48.964;9.406;2023-04-15T06:35:49;6.87;;;4.13;;
13343;SDS011;6741;48.964;9.406;2023-04-15T06:38:16;4.30;;;3.90;;
13343;SDS011;6741;48.964;9.406;2023-04-15T06:40:43;5.47;;;4.00;;
13343;SDS011;6741;48.964;9.406;2023-04-15T06:43:10;4.63;;;4.03;;
13343;SDS011;6741;48.964;9.406;2023-04-15T06:45:37;5.20;;;3.90;;
13343;SDS011;6741;48.964;9.406;2023-04-15T06:48:04;6.50;;;3.57;;
13343;SDS011;6741;48.964;9.406;2023-04-15T06:50:31;5.67;;;3.80;;
13343;SDS011;6741;48.964;9.406;2023-04-15T06:53:01;4.63;;;3.43;;
13343;SDS011;6741;48.964;9.406;2023-04-15T06:55:28;5.13;;;4.00;;
13343;SDS011;6741;48.964;9.406;2023-04-15T06:57:55;5.20;;;4.47;;
13343;SDS011;6741;48.964;9.406;2023-04-15T07:00:22;4.63;;;3.60;;
13343;SDS011;6741;48.964;9.406;2023-04-15T07:02:49;6.80;;;3.73;;
13343;SDS011;6741;48.964;9.406;2023-04-15T07:05:16;5.83;;;3.40;;
13343;SDS011;6741;48.964;9.406;2023-04-15T07:07:44;3.97;;;3.40;;
13343;SDS011;6741;48.964;9.406;2023-04-15T07:10:12;3.83;;;3.53;;
13343;SDS011;6741;48.964;9.406;2023-04-15T07:12:40;4.33;;;3.80;;
13343;SDS011;6741;48.964;9.406;2023-04-15T07:15:07;3.80;;;3.50;;
13343;SDS011;6741;48.964;9.406;2023-04-15T07:17:34;4.67;;;3.20;;
13343;SDS011;6741;48.964;9.406;2023-04-15T07:20:01;4.50;;;3.27;;
13343;SDS011;6741;48.964;9.406;2023-04-15T07:22:29;4.27;;;3.87;;
13343;SDS011;6741;48.964;9.406;2023-04-15T07:24:55;3.80;;;3.47;;
13343;SDS011;6741;48.964;9.406;2023-04-15T07:27:24;3.90;;;3.47;;
13343;SDS011;6741;48.964;9.406;2023-04-15T07:29:51;6.30;;;4.00;;
13343;SDS011;6741;48.964;9.406;2023-04-15T07:32:18;4.53;;;4.07;;
13343;SDS011;6741;48.964;9.406;2023-04-15T07:34:45;8.70;;;3.80;;
13343;SDS011;6741;48.964;9.406;2023-04-15T07:37:12;3.90;;;3.57;;
13343;SDS011;6741;48.964;9.406;2023-04-15T07:39:40;4.77;;;3.70;;
13343;SDS011;6741;48.964;9.406;2023-04-15T07:42:07;5.23;;;3.60;;
13343;SDS011;6741;48.964;9.406;2023-04-15T07:44:36;3.80;;;3.40;;
13343;SDS011;6741;48.964;9.406;2023-04-15T07:47:03;4.23;;;3.50;;
13343;SDS011;6741;48.964;9.406;2023-04-15T07:49:30;10.13;;;3.87;;
13343;SDS011;6741;48.964;9.406;2023-04-15T07:51:57;4.87;;;4.13;;
13343;SDS011;6741;48.964;9.406;2023-04-15T07:54:24;6.10;;;4.10;;
13343;SDS011;6741;48.964;9.406;2023-04-15T07:56:51;7.03;;;4.23;;
13343;SDS011;6741;48.964;9.406;2023-04-15T07:59:18;6.23;;;3.63;;
13343;SDS011;6741;48.964;9.406;2023-04-15T08:01:47;7.20;;;3.80;;
13343;SDS011;6741;48.964;9.406;2023-04-15T08:04:14;6.60;;;4.10;;
13343;SDS011;6741;48.964;9.406;2023-04-15T08:06:41;7.43;;;3.87;;
13343;SDS011;6741;48.964;9.406;2023-04-15T08:09:08;4.47;;;3.50;;
13343;SDS011;6741;48.964;9.406;2023-04-15T08:11:35;4.63;;;3.80;;
13343;SDS011;6741;48.964;9.406;2023-04-15T08:14:02;4.30;;;3.90;;
13343;SDS011;6741;48.964;9.406;2023-04-15T08:16:29;4.90;;;4.13;;
13343;SDS011;6741;48.964;9.406;2023-04-15T08:18:58;6.37;;;4.10;;
13343;SDS011;6741;48.964;9.406;2023-04-15T08:21:25;8.33;;;4.03;;
13343;SDS011;6741;48.964;9.406;2023-04-15T08:23:54;6.13;;;4.43;;
13343;SDS011;6741;48.964;9.406;2023-04-15T08:26:21;5.20;;;4.30;;
13343;SDS011;6741;48.964;9.406;2023-04-15T08:28:48;4.93;;;3.60;;
13343;SDS011;6741;48.964;9.406;2023-04-15T08:31:15;4.63;;;3.70;;
13343;SDS011;6741;48.964;9.406;2023-04-15T08:33:43;5.60;;;3.77;;
13343;SDS011;6741;48.964;9.406;2023-04-15T08:36:12;4.67;;;3.53;;
13343;SDS011;6741;48.964;9.406;2023-04-15T08:38:39;4.93;;;3.70;;
13343;SDS011;6741;48.964;9.406;2023-04-15T08:41:07;4.50;;;3.47;;
13343;SDS011;6741;48.964;9.406;2023-04-15T08:43:39;4.43;;;4.00;;
13343;SDS011;6741;48.964;9.406;2023-04-15T08:46:12;4.77;;;3.90;;
13343;SDS011;6741;48.964;9.406;2023-04-15T08:48:40;8.70;;;4.03;;
13343;SDS011;6741;48.964;9.406;2023-04-15T08:51:08;4.13;;;3.50;;
13343;SDS011;6741;48.964;9.406;2023-04-15T08:53:36;4.17;;;3.70;;
13343;SDS011;6741;48.964;9.406;2023-04-15T08:56:04;5.50;;;4.03;;
13343;SDS011;6741;48.964;9.406;2023-04-15T08:58:32;4.40;;;4.00;;
13343;SDS011;6741;48.964;9.406;2023-04-15T09:01:00;7.20;;;4.93;;
13343;SDS011;6741;48.964;9.406;2023-04-15T09:03:28;5.07;;;4.13;;
13343;SDS011;6741;48.964;9.406;2023-04-15T09:05:56;6.30;;;3.97;;
13343;SDS011;6741;48.964;9.406;2023-04-15T09:08:23;6.17;;;3.57;;
13343;SDS011;6741;48.964;9.406;2023-04-15T09:10:51;4.13;;;3.37;;
13343;SDS011;6741;48.964;9.406;2023-04-15T09:13:19;3.90;;;3.17;;
13343;SDS011;6741;48.964;9.406;2023-04-15T09:15:46;4.77;;;3.50;;
13343;SDS011;6741;48.964;9.406;2023-04-15T09:18:19;5.73;;;2.67;;
13343;SDS011;6741;48.964;9.406;2023-04-15T09:20:54;3.23;;;2.73;;
13343;SDS011;6741;48.964;9.406;2023-04-15T09:23:21;3.13;;;2.30;;
13343;SDS011;6741;48.964;9.406;2023-04-15T09:25:48;3.10;;;2.80;;
13343;SDS011;6741;48.964;9.406;2023-04-15T09:28:23;3.77;;;3.20;;
13343;SDS011;6741;48.964;9.406;2023-04-15T09:30:54;5.30;;;3.00;;
13343;SDS011;6741;48.964;9.406;2023-04-15T09:33:21;2.87;;;2.67;;
13343;SDS011;6741;48.964;9.406;2023-04-15T09:35:55;4.77;;;3.67;;
13343;SDS011;6741;48.964;9.406;2023-04-15T09:38:23;6.03;;;3.23;;
13343;SDS011;6741;48.964;9.406;2023-04-15T09:40:51;3.20;;;2.63;;
13343;SDS011;6741;48.964;9.406;2023-04-15T09:43:18;7.73;;;2.73;;
13343;SDS011;6741;48.964;9.406;2023-04-15T09:45:50;3.07;;;2.80;;
13343;SDS011;6741;48.964;9.406;2023-04-15T09:48:18;4.03;;;3.13;;
13343;SDS011;6741;48.964;9.406;2023-04-15T09:50:46;4.40;;;3.03;;
13343;SDS011;6741;48.964;9.406;2023-04-15T09:53:15;5.33;;;3.10;;
13343;SDS011;6741;48.964;9.406;2023-04-15T09:55:44;5.77;;;3.47;;
13343;SDS011;6741;48.964;9.406;2023-04-15T09:58:16;4.40;;;3.40;;
13343;SDS011;6741;48.964;9.406;2023-04-15T10:00:45;7.23;;;3.80;;
13343;SDS011;6741;48.964;9.406;2023-04-15T10:03:15;5.43;;;3.87;;
13343;SDS011;6741;48.964;9.406;2023-04-15T10:05:46;8.90;;;6.20;;
13343;SDS011;6741;48.964;9.406;2023-04-15T10:08:15;4.47;;;3.80;;
13343;SDS011;6741;48.964;9.406;2023-04-15T10:10:44;5.73;;;3.83;;
13343;SDS011;6741;48.964;9.406;2023-04-15T10:13:12;7.37;;;4.17;;
13343;SDS011;6741;48.964;9.406;2023-04-15T10:15:41;7.03;;;4.43;;
13343;SDS011;6741;48.964;9.406;2023-04-15T10:18:11;6.03;;;3.87;;
13343;SDS011;6741;48.964;9.406;2023-04-15T10:20:45;5.67;;;3.77;;
13343;SDS011;6741;48.964;9.406;2023-04-15T10:23:13;4.35;;;3.42;;
13343;SDS011;6741;48.964;9.406;2023-04-15T10:25:41;3.83;;;3.30;;
13343;SDS011;6741;48.964;9.406;2023-04-15T10:28:08;7.63;;;3.00;;
13343;SDS011;6741;48.964;9.406;2023-04-15T10:30:36;4.80;;;3.33;;
13343;SDS011;6741;48.964;9.406;2023-04-15T10:33:04;3.57;;;3.27;;
13343;SDS011;6741;48.964;9.406;2023-04-15T10:35:33;5.60;;;3.33;;
13343;SDS011;6741;48.964;9.406;2023-04-15T10:38:00;5.43;;;4.10;;
13343;SDS011;6741;48.964;9.406;2023-04-15T10:40:27;8.38;;;4.30;;
13343;SDS011;6741;48.964;9.406;2023-04-15T10:42:57;5.78;;;3.15;;
13343;SDS011;6741;48.964;9.406;2023-04-15T10:45:26;6.00;;;4.25;;
13343;SDS011;6741;48.964;9.406;2023-04-15T10:47:54;3.65;;;3.30;;
13343;SDS011;6741;48.964;9.406;2023-04-15T10:50:24;3.90;;;3.15;;
13343;SDS011;6741;48.964;9.406;2023-04-15T10:52:55;7.85;;;3.47;;
13343;SDS011;6741;48.964;9.406;2023-04-15T10:55:23;3.53;;;3.22;;
13343;SDS011;6741;48.964;9.406;2023-04-15T10:57:52;5.05;;;3.42;;
13343;SDS011;6741;48.964;9.406;2023-04-15T11:00:21;5.20;;;3.38;;
13343;SDS011;6741;48.964;9.406;2023-04-15T11:02:51;3.92;;;3.20;;
13343;SDS011;6741;48.964;9.406;2023-04-15T11:05:20;6.65;;;3.97;;
13343;SDS011;6741;48.964;9.406;2023-04-15T11:07:49;6.93;;;3.63;;
13343;SDS011;6741;48.964;9.406;2023-04-15T11:13:21;5.72;;;3.60;;
13343;SDS011;6741;48.964;9.406;2023-04-15T11:15:56;6.53;;;3.83;;
13343;SDS011;6741;48.964;9.406;2023-04-15T11:18:28;4.50;;;3.27;;
13343;SDS011;6741;48.964;9.406;2023-04-15T11:20:57;3.93;;;3.50;;
13343;SDS011;6741;48.964;9.406;2023-04-15T11:23:32;3.67;;;3.38;;
13343;SDS011;6741;48.964;9.406;2023-04-15T11:26:03;5.93;;;3.57;;
13343;SDS011;6741;48.964;9.406;2023-04-15T11:28:33;4.83;;;3.30;;
13343;SDS011;6741;48.964;9.406;2023-04-15T11:31:08;3.33;;;3.03;;
13343;SDS011;6741;48.964;9.406;2023-04-15T11:33:37;6.20;;;3.67;;
13343;SDS011;6741;48.964;9.406;2023-04-15T11:36:10;4.47;;;2.97;;
13343;SDS011;6741;48.964;9.406;2023-04-15T11:38:41;4.90;;;3.57;;
13343;SDS011;6741;48.964;9.406;2023-04-15T11:41:10;4.20;;;3.80;;
13343;SDS011;6741;48.964;9.406;2023-04-15T11:43:37;3.60;;;3.30;;
13343;SDS011;6741;48.964;9.406;2023-04-15T11:46:04;4.60;;;3.37;;
13343;SDS011;6741;48.964;9.406;2023-04-15T11:48:33;4.30;;;3.73;;
13343;SDS011;6741;48.964;9.406;2023-04-15T11:51:01;4.67;;;3.43;;
13343;SDS011;6741;48.964;9.406;2023-04-15T11:53:36;5.50;;;3.67;;
13343;SDS011;6741;48.964;9.406;2023-04-15T11:56:05;4.43;;;3.07;;
13343;SDS011;6741;48.964;9.406;2023-04-15T11:58:35;3.40;;;3.10;;
13343;SDS011;6741;48.964;9.406;2023-04-15T12:01:03;3.73;;;2.90;;
13343;SDS011;6741;48.964;9.406;2023-04-15T12:03:35;4.10;;;2.97;;
13343;SDS011;6741;48.964;9.406;2023-04-15T12:06:04;3.17;;;2.80;;
13343;SDS011;6741;48.964;9.406;2023-04-15T12:11:37;5.10;;;3.10;;
13343;SDS011;6741;48.964;9.406;2023-04-15T12:14:11;5.20;;;3.77;;
13343;SDS011;6741;48.964;9.406;2023-04-15T12:16:41;4.40;;;4.00;;
13343;SDS011;6741;48.964;9.406;2023-04-15T12:19:10;5.57;;;3.43;;
13343;SDS011;6741;48.964;9.406;2023-04-15T12:21:39;7.00;;;4.13;;
13343;SDS011;6741;48.964;9.406;2023-04-15T12:24:09;3.77;;;3.03;;
13343;SDS011;6741;48.964;9.406;2023-04-15T12:26:42;4.47;;;3.00;;
13343;SDS011;6741;48.964;9.406;2023-04-15T12:29:11;2.37;;;2.17;;
13343;SDS011;6741;48.964;9.406;2023-04-15T12:31:49;2.10;;;1.90;;
13343;SDS011;6741;48.964;9.406;2023-04-15T12:34:18;5.17;;;2.20;;
13343;SDS011;6741;48.964;9.406;2023-04-15T12:36:52;3.27;;;2.23;;
13343;SDS011;6741;48.964;9.406;2023-04-15T12:39:20;2.43;;;2.00;;
13343;SDS011;6741;48.964;9.406;2023-04-15T12:41:48;2.63;;;1.83;;
13343;SDS011;6741;48.964;9.406;2023-04-15T12:44:16;3.57;;;1.60;;
13343;SDS011;6741;48.964;9.406;2023-04-15T12:46:43;1.93;;;1.40;;
13343;SDS011;6741;48.964;9.406;2023-04-15T12:49:10;2.77;;;1.43;;
13343;SDS011;6741;48.964;9.406;2023-04-15T12:51:38;1.50;;;1.40;;
13343;SDS011;6741;48.964;9.406;2023-04-15T12:54:05;2.33;;;1.27;;
13343;SDS011;6741;48.964;9.406;2023-04-15T12:56:32;2.57;;;1.57;;
13343;SDS011;6741;48.964;9.406;2023-04-15T12:59:00;1.73;;;1.20;;
13343;SDS011;6741;48.964;9.406;2023-04-15T13:01:29;2.13;;;1.70;;
13343;SDS011;6741;48.964;9.406;2023-04-15T13:03:56;2.47;;;1.30;;
13343;SDS011;6741;48.964;9.406;2023-04-15T13:06:23;2.40;;;1.40;;
13343;SDS011;6741;48.964;9.406;2023-04-15T13:08:50;2.13;;;1.10;;
13343;SDS011;6741;48.964;9.406;2023-04-15T13:11:19;1.23;;;1.13;;
13343;SDS011;6741;48.964;9.406;2023-04-15T13:13:46;0.90;;;0.90;;
13343;SDS011;6741;48.964;9.406;2023-04-15T13:16:13;1.07;;;1.07;;
13343;SDS011;6741;48.964;9.406;2023-04-15T13:18:41;2.03;;;0.90;;
13343;SDS011;6741;48.964;9.406;2023-04-15T13:21:09;1.13;;;1.03;;
13343;SDS011;6741;48.964;9.406;2023-04-15T13:23:37;1.47;;;0.87;;
13343;SDS011;6741;48.964;9.406;2023-04-15T13:26:04;1.63;;;1.13;;
13343;SDS011;6741;48.964;9.406;2023-04-15T13:28:31;0.87;;;0.87;;
13343;SDS011;6741;48.964;9.406;2023-04-15T13:30:58;1.10;;;1.00;;
13343;SDS011;6741;48.964;9.406;2023-04-15T13:33:25;1.93;;;1.00;;
13343;SDS011;6741;48.964;9.406;2023-04-15T13:35:53;2.40;;;1.30;;
13343;SDS011;6741;48.964;9.406;2023-04-15T13:38:20;1.87;;;1.17;;
13343;SDS011;6741;48.964;9.406;2023-04-15T13:40:48;1.73;;;0.90;;
13343;SDS011;6741;48.964;9.406;2023-04-15T13:43:15;1.13;;;1.03;;
13343;SDS011;6741;48.964;9.406;2023-04-15T13:45:43;1.17;;;0.90;;
13343;SDS011;6741;48.964;9.406;2023-04-15T13:48:10;2.13;;;1.57;;
13343;SDS011;6741;48.964;9.406;2023-04-15T13:50:37;2.37;;;1.87;;
13343;SDS011;6741;48.964;9.406;2023-04-15T13:53:06;3.00;;;2.70;;
13343;SDS011;6741;48.964;9.406;2023-04-15T13:55:33;14.37;;;9.27;;
13343;SDS011;6741;48.964;9.406;2023-04-15T13:58:02;5.33;;;4.20;;
13343;SDS011;6741;48.964;9.406;2023-04-15T14:00:29;3.07;;;1.67;;
13343;SDS011;6741;48.964;9.406;2023-04-15T14:02:56;1.70;;;1.53;;
13343;SDS011;6741;48.964;9.406;2023-04-15T14:05:22;2.50;;;1.77;;
13343;SDS011;6741;48.964;9.406;2023-04-15T14:07:50;3.47;;;3.17;;
13343;SDS011;6741;48.964;9.406;2023-04-15T14:10:18;2.37;;;1.70;;
13343;SDS011;6741;48.964;9.406;2023-04-15T14:12:48;1.80;;;1.70;;
13343;SDS011;6741;48.964;9.406;2023-04-15T14:15:15;1.17;;;1.17;;
13343;SDS011;6741;48.964;9.406;2023-04-15T14:17:42;1.50;;;1.40;;
13343;SDS011;6741;48.964;9.406;2023-04-15T14:20:09;1.40;;;1.30;;
13343;SDS011;6741;48.964;9.406;2023-04-15T14:22:36;1.73;;;1.50;;
13343;SDS011;6741;48.964;9.406;2023-04-15T14:25:03;1.43;;;1.33;;
13343;SDS011;6741;48.964;9.406;2023-04-15T14:27:32;4.30;;;1.57;;
13343;SDS011;6741;48.964;9.406;2023-04-15T14:29:59;1.60;;;1.17;;
13343;SDS011;6741;48.964;9.406;2023-04-15T14:32:26;1.50;;;1.10;;
13343;SDS011;6741;48.964;9.406;2023-04-15T14:34:53;1.00;;;0.93;;
13343;SDS011;6741;48.964;9.406;2023-04-15T14:37:20;2.70;;;1.40;;
13343;SDS011;6741;48.964;9.406;2023-04-15T14:39:47;1.47;;;1.20;;
13343;SDS011;6741;48.964;9.406;2023-04-15T14:42:14;1.53;;;1.03;;
13343;SDS011;6741;48.964;9.406;2023-04-15T14:44:42;1.17;;;1.17;;
13343;SDS011;6741;48.964;9.406;2023-04-15T14:47:09;2.40;;;1.27;;
13343;SDS011;6741;48.964;9.406;2023-04-15T14:49:37;1.03;;;1.00;;
13343;SDS011;6741;48.964;9.406;2023-04-15T14:52:04;1.77;;;1.30;;
13343;SDS011;6741;48.964;9.406;2023-04-15T14:54:31;1.70;;;1.60;;
13343;SDS011;6741;48.964;9.406;2023-04-15T14:56:58;1.73;;;1.40;;
13343;SDS011;6741;48.964;9.406;2023-04-15T14:59:25;1.60;;;1.10;;
13343;SDS011;6741;48.964;9.406;2023-04-15T15:01:54;1.60;;;1.50;;
13343;SDS011;6741;48.964;9.406;2023-04-15T15:04:21;1.33;;;1.23;;
13343;SDS011;6741;48.964;9.406;2023-04-15T15:06:48;1.60;;;1.40;;
13343;SDS011;6741;48.964;9.406;2023-04-15T15:09:15;1.43;;;1.20;;
13343;SDS011;6741;48.964;9.406;2023-04-15T15:11:47;1.93;;;1.60;;